Time;durP1;ratioP1;P1;durP2;ratioP2;P2;SDS_P1;SDS_P2;PMS_P1;PMS_P2;Temp;Humidity;BMP_temperature;BMP_pressure;BME280_temperature;BME280_humidity;BME280_pressure;Samples;Min_cycle;Max_cycle;Signal;HPM_P1;HPM_P2
2021/09/18 00:02:22;;;;;;;18.50;5.92;;;;;;;15.90;62.55;100210.08;1746792;82;21558;-53
2021/09/18 00:04:50;;;;;;;17.32;5.80;;;;;;;15.83;63.00;100202.94;1746512;80;20996;-53
2021/09/18 00:07:17;;;;;;;17.65;6.42;;;;;;;15.75;63.10;100204.57;1746726;82;21129;-53
2021/09/18 00:09:43;;;;;;;18.50;5.15;;;;;;;15.71;63.11;100198.27;1746507;82;20889;-54
2021/09/18 00:12:11;;;;;;;15.03;5.37;;;;;;;15.66;63.25;100199.77;1746960;82;21458;-52
2021/09/18 00:14:39;;;;;;;11.85;5.60;;;;;;;15.61;63.18;100197.35;1746777;80;21574;-52
2021/09/18 00:17:06;;;;;;;17.57;5.12;;;;;;;15.58;63.13;100192.75;1746554;82;20967;-53
2021/09/18 00:19:34;;;;;;;17.42;5.50;;;;;;;15.56;63.25;100197.19;1746565;82;21127;-54
2021/09/18 00:22:01;;;;;;;16.52;5.28;;;;;;;15.54;63.19;100199.02;1746819;82;20913;-55
2021/09/18 00:24:29;;;;;;;20.50;5.97;;;;;;;15.53;63.22;100195.55;1725885;82;20985;-51
2021/09/18 00:26:56;;;;;;;13.55;4.75;;;;;;;15.50;63.51;100192.59;1747125;80;20936;-54
2021/09/18 00:29:23;;;;;;;15.18;5.17;;;;;;;15.49;64.15;100190.91;1725638;82;20925;-54
2021/09/18 00:31:49;;;;;;;13.22;4.95;;;;;;;15.48;64.45;100186.60;1746603;80;21177;-54
2021/09/18 00:34:16;;;;;;;8.08;4.42;;;;;;;15.47;64.54;100184.08;1746535;80;21308;-52
2021/09/18 00:36:43;;;;;;;19.23;4.40;;;;;;;15.47;64.51;100186.69;1759766;80;20886;-53
2021/09/18 00:39:11;;;;;;;16.25;4.30;;;;;;;15.50;64.48;100186.08;1762943;80;20952;-53
2021/09/18 00:41:38;;;;;;;26.97;5.03;;;;;;;15.54;64.73;100184.67;1763060;81;20905;-54
2021/09/18 00:44:07;;;;;;;11.93;4.17;;;;;;;15.55;64.98;100187.67;1762826;81;21808;-52
2021/09/18 00:46:33;;;;;;;13.32;4.30;;;;;;;15.57;64.88;100184.53;1762846;81;20881;-54
2021/09/18 00:49:00;;;;;;;9.43;4.15;;;;;;;15.60;64.99;100187.00;1763246;81;21381;-53
2021/09/18 00:51:26;;;;;;;13.32;4.42;;;;;;;15.62;65.32;100181.26;1762886;80;21617;-53
2021/09/18 00:53:52;;;;;;;18.42;4.75;;;;;;;15.63;65.29;100179.87;1762876;81;20984;-55
2021/09/18 00:56:19;;;;;;;18.20;4.75;;;;;;;15.64;65.50;100173.73;1762815;81;21774;-52
2021/09/18 00:58:47;;;;;;;17.37;4.75;;;;;;;15.65;65.72;100174.12;1762946;81;21493;-53
2021/09/18 01:01:13;;;;;;;17.82;5.20;;;;;;;15.65;65.83;100175.43;1762748;81;20917;-52
2021/09/18 01:03:44;;;;;;;11.15;5.05;;;;;;;15.65;65.83;100179.81;1762840;81;20996;-53
2021/09/18 01:06:11;;;;;;;21.90;6.25;;;;;;;15.65;65.80;100177.20;1762852;80;20886;-56
2021/09/18 01:08:37;;;;;;;25.12;7.42;;;;;;;15.64;65.62;100171.60;1737295;81;21119;-55
2021/09/18 01:11:06;;;;;;;28.38;7.92;;;;;;;15.62;65.37;100170.34;1762865;81;21054;-54
2021/09/18 01:13:34;;;;;;;33.48;8.90;;;;;;;15.61;65.21;100167.83;1762989;81;21979;-53
2021/09/18 01:16:04;;;;;;;41.30;9.48;;;;;;;15.62;65.03;100165.61;1762887;81;21404;-53
2021/09/18 01:18:32;;;;;;;48.02;9.60;;;;;;;15.62;64.91;100165.61;1763026;81;21561;-55
2021/09/18 01:21:00;;;;;;;39.63;9.45;;;;;;;15.65;64.83;100161.08;1762829;81;20945;-54
2021/09/18 01:23:28;;;;;;;74.25;11.55;;;;;;;15.70;64.73;100160.05;1762940;81;20968;-54
2021/09/18 01:25:55;;;;;;;44.25;10.23;;;;;;;15.73;65.32;100158.14;1762953;81;21574;-52
2021/09/18 01:28:23;;;;;;;64.45;11.25;;;;;;;15.79;65.11;100156.58;1763136;81;20898;-52
2021/09/18 01:30:51;;;;;;;65.92;12.60;;;;;;;15.82;65.26;100152.97;1762851;81;20870;-54
2021/09/18 01:33:18;;;;;;;55.83;10.65;;;;;;;15.84;65.21;100154.22;1763105;81;21114;-54
2021/09/18 01:35:45;;;;;;;58.55;12.13;;;;;;;15.85;65.49;100148.91;1758573;81;20960;-55
2021/09/18 01:38:12;;;;;;;53.28;11.22;;;;;;;15.86;65.59;100147.16;1746726;81;20987;-55
2021/09/18 01:40:44;;;;;;;48.52;11.12;;;;;;;15.84;65.67;100140.69;1746650;82;21510;-53
2021/09/18 01:43:12;;;;;;;44.25;10.23;;;;;;;15.86;65.95;100148.47;1746507;82;21395;-51
2021/09/18 01:45:39;;;;;;;27.77;8.70;;;;;;;15.85;66.35;100141.08;1746847;82;21270;-53
2021/09/18 01:48:08;;;;;;;49.08;10.88;;;;;;;15.84;67.26;100149.83;1746554;82;21050;-53
2021/09/18 01:50:46;;;;;;;50.10;10.98;;;;;;;15.83;67.24;100146.00;1746759;82;21023;-52
2021/09/18 01:53:19;;;;;;;38.78;10.15;;;;;;;15.83;67.90;100143.39;1746643;82;20968;-54
2021/09/18 01:55:48;;;;;;;46.30;10.30;;;;;;;15.82;68.71;100143.83;1746533;82;20979;-54
2021/09/18 01:58:15;;;;;;;28.57;9.25;;;;;;;15.83;69.15;100149.44;1746645;82;21169;-53
2021/09/18 02:00:51;;;;;;;36.28;9.48;;;;;;;15.84;70.01;100144.61;1746506;82;20972;-56
2021/09/18 02:03:19;;;;;;;43.25;11.00;;;;;;;15.85;70.56;100146.30;1746400;80;21005;-52
2021/09/18 02:05:48;;;;;;;34.38;9.70;;;;;;;15.86;71.09;100149.30;1746457;82;21422;-53
2021/09/18 02:08:16;;;;;;;33.50;9.50;;;;;;;15.89;71.38;100149.66;1746542;80;20925;-54
2021/09/18 02:10:43;;;;;;;40.50;9.58;;;;;;;15.92;72.14;100145.59;1746374;82;21098;-51
2021/09/18 02:13:11;;;;;;;28.30;9.58;;;;;;;15.90;72.47;100141.74;1746448;80;20944;-52
2021/09/18 02:15:38;;;;;;;32.90;9.10;;;;;;;15.90;73.09;100139.61;1746888;80;20928;-52
2021/09/18 02:18:06;;;;;;;27.20;8.78;;;;;;;15.91;73.62;100142.16;1746562;82;20920;-52
2021/09/18 02:20:33;;;;;;;34.88;8.83;;;;;;;15.93;73.71;100143.38;1746507;82;20976;-51
2021/09/18 02:23:02;;;;;;;26.37;8.73;;;;;;;15.95;74.59;100133.71;1746470;82;20987;-53
2021/09/18 02:25:29;;;;;;;40.58;8.45;;;;;;;15.96;75.30;100138.02;1746323;81;20971;-53
2021/09/18 02:27:56;;;;;;;33.85;8.63;;;;;;;15.99;75.83;100137.87;1746507;80;20865;-51
2021/09/18 02:30:30;;;;;;;28.52;8.78;;;;;;;16.02;76.34;100132.50;1746469;80;21015;-51
2021/09/18 02:32:57;;;;;;;19.98;7.00;;;;;;;16.06;77.04;100130.16;1746764;82;20897;-53
2021/09/18 02:35:26;;;;;;;27.82;7.72;;;;;;;16.09;77.88;100128.71;1746346;82;21128;-54
2021/09/18 02:37:53;;;;;;;34.38;7.60;;;;;;;16.14;78.58;100128.95;1752227;82;20923;-54
2021/09/18 02:40:22;;;;;;;37.20;7.75;;;;;;;16.15;79.18;100128.03;1752022;82;20939;-53
2021/09/18 02:42:51;;;;;;;34.48;8.65;;;;;;;16.22;79.98;100123.75;1752093;81;21013;-55
2021/09/18 02:45:19;;;;;;;30.60;7.20;;;;;;;16.27;81.10;100126.13;1751870;82;20995;-53
2021/09/18 02:47:46;;;;;;;31.30;6.47;;;;;;;16.33;81.78;100124.55;1752224;82;21366;-53
2021/09/18 02:50:15;;;;;;;20.65;7.05;;;;;;;16.41;82.32;100123.33;1752101;82;20884;-53
2021/09/18 02:52:43;;;;;;;20.00;7.37;;;;;;;16.48;83.13;100127.33;1752042;82;20892;-53
2021/09/18 02:55:11;;;;;;;17.05;6.65;;;;;;;16.55;83.24;100117.44;1752136;80;21033;-53
2021/09/18 02:57:39;;;;;;;14.13;5.97;;;;;;;16.61;83.28;100119.74;1752019;82;20964;-55
2021/09/18 03:00:09;;;;;;;22.67;6.92;;;;;;;16.66;83.53;100123.83;1752108;82;21532;-52
2021/09/18 03:02:35;;;;;;;19.40;6.78;;;;;;;16.72;83.73;100120.52;1752227;82;21030;-53
2021/09/18 03:05:03;;;;;;;17.82;6.60;;;;;;;16.77;83.49;100125.91;1752207;81;20950;-54
2021/09/18 03:07:30;;;;;;;13.18;5.85;;;;;;;16.81;83.31;100129.23;1752381;82;20979;-52
2021/09/18 03:09:56;;;;;;;14.05;5.87;;;;;;;16.83;83.03;100120.85;1751957;82;21018;-53
2021/09/18 03:12:24;;;;;;;9.98;6.17;;;;;;;16.84;82.89;100125.60;1752282;80;21193;-54
2021/09/18 03:14:51;;;;;;;18.17;6.10;;;;;;;16.83;82.62;100122.60;1752089;82;20983;-52
2021/09/18 03:17:18;;;;;;;11.00;5.83;;;;;;;16.82;82.71;100124.39;1752045;82;20915;-52
2021/09/18 03:19:46;;;;;;;17.45;5.92;;;;;;;16.83;82.61;100128.69;1752182;82;21512;-54
2021/09/18 03:22:14;;;;;;;18.55;6.70;;;;;;;16.84;82.45;100121.68;1752183;80;21358;-51
2021/09/18 03:24:43;;;;;;;22.82;6.35;;;;;;;16.84;82.37;100122.98;1752309;80;20923;-53
2021/09/18 03:27:09;;;;;;;28.92;7.28;;;;;;;16.84;82.44;100119.06;1752396;80;21517;-53
2021/09/18 03:29:37;;;;;;;30.30;7.15;;;;;;;16.84;82.33;100125.16;1752237;82;20967;-54
2021/09/18 03:32:05;;;;;;;27.02;6.90;;;;;;;16.82;82.21;100125.70;1752520;80;21337;-52
2021/09/18 03:34:33;;;;;;;18.65;6.92;;;;;;;16.83;82.03;100130.00;1752097;80;21129;-53
2021/09/18 03:36:59;;;;;;;18.65;7.35;;;;;;;16.82;81.97;100134.84;1758594;80;22428;-53
2021/09/18 03:39:25;;;;;;;24.27;8.25;;;;;;;16.77;81.85;100131.59;1764987;81;20917;-52
2021/09/18 03:41:52;;;;;;;37.05;9.13;;;;;;;16.75;81.78;100139.97;1765151;81;21038;-54
2021/09/18 03:44:20;;;;;;;42.17;8.55;;;;;;;16.70;81.75;100136.73;1765049;81;20988;-53
2021/09/18 03:46:47;;;;;;;32.48;7.80;;;;;;;16.70;81.74;100134.98;1765150;81;21086;-53
2021/09/18 03:49:13;;;;;;;29.55;8.75;;;;;;;16.68;81.85;100132.05;1765367;81;21792;-54
2021/09/18 03:51:40;;;;;;;27.00;7.55;;;;;;;16.66;82.17;100134.28;1765217;81;21707;-52
2021/09/18 03:54:09;;;;;;;21.05;7.35;;;;;;;16.65;82.06;100137.81;1764844;80;20890;-52
2021/09/18 03:56:37;;;;;;;22.95;8.15;;;;;;;16.62;81.73;100141.89;1765014;81;21026;-53
2021/09/18 03:59:05;;;;;;;32.33;8.00;;;;;;;16.57;81.20;100147.80;1765037;81;20996;-53
2021/09/18 04:01:31;;;;;;;29.98;8.80;;;;;;;16.54;81.10;100149.23;1736977;81;21742;-54
2021/09/18 04:04:00;;;;;;;24.92;8.90;;;;;;;16.49;80.96;100148.17;1764943;80;20957;-54
2021/09/18 04:06:27;;;;;;;31.42;8.73;;;;;;;16.49;80.84;100151.23;1765386;81;21033;-53
2021/09/18 04:08:54;;;;;;;30.62;8.68;;;;;;;16.45;80.79;100149.69;1762270;80;21436;-54
2021/09/18 04:11:21;;;;;;;30.00;8.68;;;;;;;16.43;80.77;100155.45;1764891;81;21016;-53
2021/09/18 04:13:51;;;;;;;19.95;8.13;;;;;;;16.42;80.88;100151.14;1765246;81;21447;-53
2021/09/18 04:16:20;;;;;;;32.20;8.03;;;;;;;16.41;81.08;100154.67;1764972;81;21016;-55
2021/09/18 04:18:48;;;;;;;26.23;8.38;;;;;;;16.40;81.43;100151.68;1765059;81;20964;-54
2021/09/18 04:21:17;;;;;;;39.30;9.63;;;;;;;16.37;81.47;100152.22;1765033;81;21078;-52
2021/09/18 04:23:44;;;;;;;37.53;8.23;;;;;;;16.38;81.89;100143.91;1764954;81;20885;-55
2021/09/18 04:26:12;;;;;;;26.15;8.73;;;;;;;16.37;82.03;100140.91;1765192;81;20942;-54
2021/09/18 04:28:41;;;;;;;23.05;7.75;;;;;;;16.35;82.42;100144.91;1765042;81;21039;-55
2021/09/18 04:31:07;;;;;;;19.80;7.50;;;;;;;16.36;82.39;100145.30;1764967;80;20898;-55
2021/09/18 04:33:34;;;;;;;22.85;7.78;;;;;;;16.37;82.35;100148.73;1765153;81;20850;-52
2021/09/18 04:36:01;;;;;;;28.23;8.65;;;;;;;16.38;82.48;100139.54;1764972;81;21363;-54
2021/09/18 04:38:27;;;;;;;25.92;8.85;;;;;;;16.38;82.56;100135.63;1731868;81;21915;-53
2021/09/18 04:40:54;;;;;;;22.00;9.23;;;;;;;16.38;82.96;100131.70;1760022;81;21422;-54
2021/09/18 04:43:20;;;;;;;27.95;8.08;;;;;;;16.38;83.38;100128.23;1759946;80;20924;-53
2021/09/18 04:45:47;;;;;;;20.37;7.97;;;;;;;16.37;83.96;100134.38;1760038;81;21473;-53
2021/09/18 04:48:13;;;;;;;17.23;7.12;;;;;;;16.37;84.34;100132.63;1760309;81;20952;-52
2021/09/18 04:50:41;;;;;;;13.43;7.25;;;;;;;16.37;85.10;100131.32;1760221;81;21957;-53
2021/09/18 04:53:07;;;;;;;14.43;7.12;;;;;;;16.37;85.80;100132.63;1759904;81;20833;-52
2021/09/18 04:55:34;;;;;;;13.68;7.20;;;;;;;16.38;86.00;100134.76;1759957;81;20955;-52
2021/09/18 04:58:01;;;;;;;16.75;6.53;;;;;;;16.38;86.83;100133.45;1760047;81;20934;-55
2021/09/18 05:00:29;;;;;;;14.13;7.05;;;;;;;16.34;87.23;100141.05;1759843;81;20960;-54
2021/09/18 05:02:56;;;;;;;16.12;8.40;;;;;;;16.31;87.74;100122.48;1759873;81;21122;-54
2021/09/18 05:05:22;;;;;;;16.45;7.47;;;;;;;16.27;88.02;100130.52;1759910;81;20964;-53
2021/09/18 05:07:49;;;;;;;16.00;7.47;;;;;;;16.21;88.81;100126.42;1759823;80;20932;-53
2021/09/18 05:10:15;;;;;;;24.67;7.80;;;;;;;16.09;90.00;100120.88;1760057;81;20904;-53
2021/09/18 05:12:42;;;;;;;17.52;7.97;;;;;;;15.97;90.54;100129.27;1759899;81;20933;-51
2021/09/18 05:15:09;;;;;;;16.20;7.92;;;;;;;15.86;91.96;100127.59;1759918;81;21138;-51
2021/09/18 05:17:37;;;;;;;14.00;8.00;;;;;;;15.70;92.47;100130.88;1759738;81;21079;-53
2021/09/18 05:20:07;;;;;;;16.97;8.53;;;;;;;15.60;93.73;100124.40;1759973;81;20956;-53
2021/09/18 05:22:34;;;;;;;17.70;8.13;;;;;;;15.50;94.47;100134.39;1759862;81;20967;-51
2021/09/18 05:25:03;;;;;;;15.60;8.90;;;;;;;15.45;95.37;100131.97;1759794;81;20972;-52
2021/09/18 05:27:30;;;;;;;19.60;8.90;;;;;;;15.38;96.02;100122.27;1757393;81;21916;-52
2021/09/18 05:29:57;;;;;;;15.63;8.95;;;;;;;15.34;96.33;100128.53;1760088;81;21493;-53
2021/09/18 05:32:23;;;;;;;18.32;8.40;;;;;;;15.33;96.80;100123.40;1732157;81;20971;-52
2021/09/18 05:34:51;;;;;;;14.30;8.58;;;;;;;15.31;97.10;100114.80;1759995;81;21462;-52
2021/09/18 05:37:18;;;;;;;22.07;8.90;;;;;;;15.28;97.70;100116.20;1754718;80;21485;-53
2021/09/18 05:39:44;;;;;;;14.95;8.80;;;;;;;15.23;98.27;100115.13;1746517;81;21275;-53
2021/09/18 05:42:11;;;;;;;13.22;8.95;;;;;;;15.19;98.71;100120.92;1746520;80;20937;-55
2021/09/18 05:44:39;;;;;;;14.55;9.43;;;;;;;15.15;99.13;100111.54;1746496;80;21497;-55
2021/09/18 05:47:06;;;;;;;15.85;9.05;;;;;;;15.12;99.66;100106.46;1746836;80;20945;-52
2021/09/18 05:49:32;;;;;;;13.55;8.73;;;;;;;15.09;100.00;100103.98;1725236;82;21573;-56
2021/09/18 05:52:01;;;;;;;16.65;9.30;;;;;;;15.04;100.00;100112.00;1746574;82;20957;-54
2021/09/18 05:54:27;;;;;;;16.75;8.73;;;;;;;15.03;100.00;100111.61;1746679;82;21532;-53
2021/09/18 05:56:55;;;;;;;11.25;7.60;;;;;;;15.04;100.00;100113.30;1725407;82;21514;-51
2021/09/18 05:59:22;;;;;;;12.13;8.28;;;;;;;15.04;100.00;100109.39;1746400;81;20980;-54
2021/09/18 06:01:50;;;;;;;19.02;6.97;;;;;;;15.06;100.00;100111.47;1746464;82;20972;-51
2021/09/18 06:04:17;;;;;;;13.78;7.92;;;;;;;15.07;100.00;100105.34;1746463;80;21218;-52
2021/09/18 06:06:45;;;;;;;9.58;6.85;;;;;;;15.09;100.00;100110.50;1746520;82;20925;-52
2021/09/18 06:09:13;;;;;;;10.45;6.50;;;;;;;15.10;100.00;100113.50;1746471;82;20893;-53
2021/09/18 06:11:40;;;;;;;12.25;6.50;;;;;;;15.12;100.00;100116.89;1746610;80;20957;-54
2021/09/18 06:14:06;;;;;;;7.30;6.25;;;;;;;15.11;100.00;100113.89;1746503;80;20979;-52
2021/09/18 06:16:34;;;;;;;11.57;6.28;;;;;;;15.11;100.00;100115.64;1746530;81;21450;-54
2021/09/18 06:19:00;;;;;;;7.45;5.67;;;;;;;15.12;100.00;100109.07;1746728;80;20964;-53
2021/09/18 06:21:27;;;;;;;10.98;5.95;;;;;;;15.13;100.00;100093.81;1746388;82;20999;-52
2021/09/18 06:23:55;;;;;;;11.25;5.78;;;;;;;15.14;100.00;100103.33;1725703;82;20857;-53
2021/09/18 06:26:21;;;;;;;8.70;5.05;;;;;;;15.16;100.00;100101.50;1746674;80;21540;-54
2021/09/18 06:28:49;;;;;;;7.70;5.20;;;;;;;15.19;100.00;100096.62;1746415;80;21161;-53
2021/09/18 06:31:16;;;;;;;10.65;5.22;;;;;;;15.21;100.00;100096.09;1746281;80;20971;-55
2021/09/18 06:33:42;;;;;;;5.60;5.00;;;;;;;15.25;100.00;100103.31;1746585;80;20929;-54
2021/09/18 06:36:09;;;;;;;6.55;5.00;;;;;;;15.27;100.00;100096.27;1746510;80;20925;-54
2021/09/18 06:38:35;;;;;;;7.62;5.50;;;;;;;15.30;100.00;100096.98;1759552;81;20996;-54
2021/09/18 06:41:03;;;;;;;8.55;4.85;;;;;;;15.32;100.00;100101.67;1762725;81;22006;-54
2021/09/18 06:43:32;;;;;;;11.15;4.80;;;;;;;15.34;100.00;100114.66;1762930;80;21537;-51
2021/09/18 06:46:00;;;;;;;5.50;4.85;;;;;;;15.38;100.00;100113.61;1762771;81;20890;-53
2021/09/18 06:48:27;;;;;;;7.12;4.72;;;;;;;15.39;100.00;100107.47;1762907;81;20984;-54
2021/09/18 06:50:53;;;;;;;9.28;5.40;;;;;;;15.40;100.00;100109.16;1762851;81;21051;-52
2021/09/18 06:53:21;;;;;;;6.22;4.97;;;;;;;15.40;100.00;100105.70;1762904;81;20984;-53
2021/09/18 06:55:48;;;;;;;7.05;5.22;;;;;;;15.40;100.00;100111.77;1763262;81;20918;-54
2021/09/18 06:58:16;;;;;;;5.20;4.78;;;;;;;15.39;100.00;100108.78;1762958;81;21031;-54
2021/09/18 07:00:42;;;;;;;9.00;5.22;;;;;;;15.40;100.00;100100.48;1763077;81;21008;-53
2021/09/18 07:03:09;;;;;;;5.15;4.65;;;;;;;15.40;100.00;100107.00;1763098;81;20894;-53
2021/09/18 07:05:35;;;;;;;8.50;5.25;;;;;;;15.41;100.00;100104.78;1763052;81;22617;-54
2021/09/18 07:08:02;;;;;;;9.20;5.05;;;;;;;15.41;100.00;100103.03;1762690;80;20964;-55
2021/09/18 07:10:28;;;;;;;5.53;5.00;;;;;;;15.42;100.00;100100.81;1762836;81;20866;-52
2021/09/18 07:12:55;;;;;;;6.20;5.08;;;;;;;15.44;100.00;100106.81;1736995;81;20988;-52
2021/09/18 07:15:22;;;;;;;7.03;5.10;;;;;;;15.48;100.00;100100.53;1762909;81;20878;-54
2021/09/18 07:17:50;;;;;;;8.78;5.28;;;;;;;15.52;100.00;100106.00;1762955;80;20979;-54
2021/09/18 07:20:17;;;;;;;6.60;4.80;;;;;;;15.56;100.00;100100.67;1736808;81;20941;-54
2021/09/18 07:22:43;;;;;;;8.48;5.35;;;;;;;15.59;100.00;100106.58;1763429;80;20897;-55
2021/09/18 07:25:11;;;;;;;6.42;5.05;;;;;;;15.65;100.00;100101.55;1762920;81;20981;-54
2021/09/18 07:27:38;;;;;;;8.85;5.05;;;;;;;15.72;100.00;100100.34;1763264;81;21011;-55
2021/09/18 07:30:07;;;;;;;11.93;5.33;;;;;;;15.83;100.00;100104.25;1762937;81;21118;-54
2021/09/18 07:32:33;;;;;;;9.73;5.22;;;;;;;15.91;100.00;100095.63;1763145;81;20945;-54
2021/09/18 07:35:05;;;;;;;10.15;5.08;;;;;;;15.98;100.00;100091.80;1762785;81;21443;-51
2021/09/18 07:37:28;;;;;;;7.42;5.05;;;;;;;16.03;100.00;100092.42;1762245;81;20961;-53
2021/09/18 07:39:55;;;;;;;8.15;4.85;;;;;;;16.13;100.00;100086.79;1763025;81;21015;-54
2021/09/18 07:42:21;;;;;;;6.37;4.47;;;;;;;16.22;100.00;100088.95;1762916;81;21201;-54
2021/09/18 07:44:48;;;;;;;9.90;5.12;;;;;;;16.31;100.00;100087.67;1736921;81;20996;-55
2021/09/18 07:47:15;;;;;;;9.58;5.28;;;;;;;16.37;100.00;100086.92;1762994;81;20886;-53
2021/09/18 07:49:41;;;;;;;7.15;5.05;;;;;;;16.46;99.85;100093.91;1736970;81;21537;-55
2021/09/18 07:52:08;;;;;;;19.75;5.42;;;;;;;16.53;99.47;100095.30;1762906;81;21015;-55
2021/09/18 07:54:36;;;;;;;8.78;4.85;;;;;;;16.53;98.31;100101.83;1762865;81;20957;-52
2021/09/18 07:57:03;;;;;;;8.95;5.60;;;;;;;16.59;98.29;100096.32;1762969;81;21036;-54
2021/09/18 07:59:30;;;;;;;9.98;5.87;;;;;;;16.66;97.70;100095.09;1762971;81;20910;-52
2021/09/18 08:01:57;;;;;;;10.45;5.17;;;;;;;16.73;97.39;100089.10;1762862;81;21549;-54
2021/09/18 08:04:24;;;;;;;15.32;5.37;;;;;;;16.73;96.30;100091.72;1736454;81;20917;-53
2021/09/18 08:06:50;;;;;;;20.72;6.22;;;;;;;16.74;96.42;100100.38;1762682;80;21852;-55
2021/09/18 08:09:17;;;;;;;13.93;5.12;;;;;;;16.72;95.69;100099.61;1762913;81;20917;-53
2021/09/18 08:11:43;;;;;;;17.62;5.47;;;;;;;16.70;95.82;100104.94;1762854;81;20882;-56
2021/09/18 08:14:10;;;;;;;15.32;5.62;;;;;;;16.67;95.57;100099.83;1762959;81;20984;-53
2021/09/18 08:16:37;;;;;;;11.15;5.67;;;;;;;16.66;95.47;100097.70;1762912;81;21007;-53
2021/09/18 08:19:04;;;;;;;13.70;5.45;;;;;;;16.66;95.03;100102.92;1736902;81;21005;-54
2021/09/18 08:21:30;;;;;;;11.03;5.08;;;;;;;16.66;94.37;100105.98;1763011;80;20960;-55
2021/09/18 08:23:57;;;;;;;9.53;4.87;;;;;;;16.68;94.27;100106.78;1763268;81;20980;-55
2021/09/18 08:26:29;;;;;;;7.17;4.72;;;;;;;16.71;94.04;100109.23;1763013;81;20902;-53
2021/09/18 08:28:53;;;;;;;8.35;4.83;;;;;;;16.75;93.43;100108.61;1762190;81;20961;-53
2021/09/18 08:31:19;;;;;;;7.10;4.20;;;;;;;16.75;92.13;100100.77;1763022;81;21079;-53
2021/09/18 08:33:45;;;;;;;6.20;4.30;;;;;;;16.75;91.78;100096.84;1763193;81;20937;-56
2021/09/18 08:36:12;;;;;;;7.58;3.95;;;;;;;16.76;91.20;100094.62;1762901;81;21044;-54
2021/09/18 08:38:39;;;;;;;5.22;4.35;;;;;;;16.75;91.28;100087.25;1754376;81;20928;-53
2021/09/18 08:41:05;;;;;;;10.45;4.83;;;;;;;16.75;91.30;100087.70;1746610;82;21034;-53
2021/09/18 08:43:32;;;;;;;8.08;4.08;;;;;;;16.73;91.19;100092.16;1724481;80;20994;-55
2021/09/18 08:46:00;;;;;;;9.35;3.90;;;;;;;16.72;91.42;100095.25;1725181;82;20897;-57
2021/09/18 08:48:26;;;;;;;10.75;3.98;;;;;;;16.74;91.45;100091.23;1746786;82;21553;-56
2021/09/18 08:50:53;;;;;;;8.60;4.40;;;;;;;16.76;91.94;100085.47;1746561;81;21054;-55
2021/09/18 08:53:20;;;;;;;8.88;4.22;;;;;;;16.73;91.49;100084.32;1725431;82;21011;-53
2021/09/18 08:55:57;;;;;;;6.58;4.03;;;;;;;16.72;91.62;100095.70;1746489;80;21184;-53
2021/09/18 08:58:24;;;;;;;12.07;3.80;;;;;;;16.70;91.33;100086.64;1745622;82;20921;-56
2021/09/18 09:00:54;;;;;;;7.30;4.05;;;;;;;16.68;91.58;100091.55;1746885;80;20984;-54
2021/09/18 09:03:29;;;;;;;4.95;4.15;;;;;;;16.68;91.18;100084.58;1746448;82;21011;-54
2021/09/18 09:06:09;;;;;;;11.45;4.60;;;;;;;16.64;90.87;100086.48;1746596;80;20976;-57
2021/09/18 09:08:38;;;;;;;7.85;3.90;;;;;;;16.62;91.21;100085.72;1746317;82;21971;-54
2021/09/18 09:11:23;;;;;;;6.90;4.03;;;;;;;16.59;91.32;100078.48;1746582;80;20924;-55
2021/09/18 09:13:55;;;;;;;8.38;3.77;;;;;;;16.57;91.25;100078.57;1746785;82;20956;-55
2021/09/18 09:16:24;;;;;;;10.85;4.53;;;;;;;16.52;90.77;100076.62;1746425;82;20905;-54
2021/09/18 09:18:50;;;;;;;9.50;4.78;;;;;;;16.51;91.06;100075.80;1746764;82;21561;-55
2021/09/18 09:21:22;;;;;;;10.50;4.42;;;;;;;16.50;91.07;100077.16;1746552;82;21564;-54
2021/09/18 09:24:14;;;;;;;8.30;4.35;;;;;;;16.52;90.53;100081.84;1746775;82;20885;-53
2021/09/18 09:26:43;;;;;;;10.05;4.42;;;;;;;16.51;89.31;100075.80;1746555;82;20916;-53
2021/09/18 09:29:10;;;;;;;11.28;4.10;;;;;;;16.51;88.19;100077.09;1746690;82;20932;-53
2021/09/18 09:31:39;;;;;;;11.08;4.90;;;;;;;16.55;86.59;100082.17;1746657;82;21387;-53
2021/09/18 09:34:18;;;;;;;10.78;4.15;;;;;;;16.60;85.37;100080.17;1746590;82;21426;-56
2021/09/18 09:36:48;;;;;;;9.88;4.33;;;;;;;16.62;83.49;100090.94;1746751;82;20960;-54
2021/09/18 09:39:22;;;;;;;14.60;4.30;;;;;;;16.64;83.02;100083.87;1758212;80;20882;-56
2021/09/18 09:41:55;;;;;;;5.90;4.10;;;;;;;16.68;82.69;100091.55;1764769;81;21486;-56
2021/09/18 09:44:27;;;;;;;8.88;3.87;;;;;;;16.66;82.55;100088.55;1765308;81;20885;-54
2021/09/18 09:47:10;;;;;;;8.30;4.55;;;;;;;16.67;83.00;100092.00;1764968;80;21912;-54
2021/09/18 09:49:48;;;;;;;14.25;4.17;;;;;;;16.62;83.03;100090.94;1765116;81;20961;-53
2021/09/18 09:52:32;;;;;;;10.10;4.40;;;;;;;16.58;83.96;100089.85;1764977;80;21420;-55
2021/09/18 09:55:16;;;;;;;11.10;4.25;;;;;;;16.53;84.62;100087.45;1765305;81;20874;-55
2021/09/18 09:57:47;;;;;;;15.32;4.65;;;;;;;16.53;85.26;100090.06;1737106;81;21032;-53
2021/09/18 10:00:15;;;;;;;7.58;4.35;;;;;;;16.52;85.92;100080.09;1755179;80;21899;-53
2021/09/18 10:02:43;;;;;;;6.83;4.58;;;;;;;16.56;86.34;100083.86;1765334;81;20889;-54
2021/09/18 10:05:15;;;;;;;13.68;4.60;;;;;;;16.60;86.93;100083.64;1764961;81;20885;-56
2021/09/18 10:07:43;;;;;;;8.70;4.62;;;;;;;16.64;87.48;100076.47;1765080;81;21433;-52
2021/09/18 10:10:12;;;;;;;8.50;4.87;;;;;;;16.72;87.77;100087.41;1764983;80;20984;-55
2021/09/18 10:12:40;;;;;;;11.70;5.25;;;;;;;16.77;88.03;100078.88;1764977;81;20929;-55
2021/09/18 10:15:09;;;;;;;15.30;6.42;;;;;;;16.86;88.10;100077.56;1765336;81;21000;-53
2021/09/18 10:17:40;;;;;;;20.43;5.47;;;;;;;16.93;87.69;100075.02;1720188;81;20952;-54
2021/09/18 10:23:13;;;;;;;11.78;5.22;;;;;;;17.05;87.80;100068.79;1765474;81;21045;-53
2021/09/18 10:25:33;;;;;;;25.92;5.85;;;;;;;17.31;87.38;100063.52;1762507;80;21093;-55
2021/09/18 10:28:17;;;;;;;14.83;5.78;;;;;;;17.41;86.43;100062.57;1764810;81;20969;-54
2021/09/18 10:30:59;;;;;;;14.05;5.05;;;;;;;17.50;85.93;100065.16;1765311;80;21003;-52
2021/09/18 10:33:49;;;;;;;13.75;5.65;;;;;;;17.60;85.74;100066.82;1764955;81;21037;-53
2021/09/18 10:36:19;;;;;;;19.32;5.40;;;;;;;17.70;84.81;100062.77;1765011;80;20889;-55
2021/09/18 10:38:49;;;;;;;13.88;5.90;;;;;;;17.81;84.23;100056.49;1734271;81;21929;-54
2021/09/18 10:41:20;;;;;;;11.83;5.28;;;;;;;17.90;82.98;100060.83;1751875;79;20988;-54
2021/09/18 10:43:59;;;;;;;13.58;5.08;;;;;;;17.96;82.49;100056.55;1756677;79;20936;-55
2021/09/18 10:47:01;;;;;;;17.57;6.17;;;;;;;18.00;81.74;100051.52;1756232;81;20971;-55
2021/09/18 10:49:45;;;;;;;11.53;4.62;;;;;;;18.03;80.94;100056.61;1726961;81;21006;-52
2021/09/18 10:54:28;;;;;;;9.93;5.35;;;;;;;18.01;79.15;100054.55;1798360;79;22706;-53
2021/09/18 10:57:06;;;;;;;8.80;4.72;;;;;;;17.97;78.20;100055.62;1738731;81;20933;-53
2021/09/18 10:59:49;;;;;;;22.45;5.60;;;;;;;17.99;77.56;100050.31;1758041;81;21161;-54
2021/09/18 11:02:38;;;;;;;12.03;5.08;;;;;;;18.00;76.52;100050.21;1758015;81;20908;-53
2021/09/18 11:05:30;;;;;;;21.82;5.83;;;;;;;18.01;73.99;100048.45;1749951;81;20963;-56
2021/09/18 11:08:02;;;;;;;9.98;4.45;;;;;;;18.04;74.40;100050.45;1749948;80;20967;-54
2021/09/18 11:10:36;;;;;;;12.98;4.42;;;;;;;18.07;71.79;100054.68;1749612;80;21042;-53
2021/09/18 11:13:13;;;;;;;9.50;3.47;;;;;;;18.08;71.96;100050.68;1749642;82;21464;-53
2021/09/18 11:15:58;;;;;;;12.80;3.85;;;;;;;18.05;71.59;100050.83;1719931;82;20944;-52
2021/09/18 11:18:39;;;;;;;13.08;4.12;;;;;;;18.01;71.98;100051.93;1749631;82;21482;-55
2021/09/18 11:21:19;;;;;;;19.20;4.12;;;;;;;17.89;71.38;100059.97;1749536;81;20929;-54
2021/09/18 11:23:56;;;;;;;7.95;3.37;;;;;;;17.80;72.58;100057.39;1720105;82;20948;-55
2021/09/18 11:26:48;;;;;;;9.35;3.37;;;;;;;17.71;72.60;100064.94;1749597;82;21855;-54
2021/09/18 11:29:34;;;;;;;9.98;3.22;;;;;;;17.59;73.04;100073.81;1749641;81;20872;-54
2021/09/18 11:32:19;;;;;;;7.33;3.52;;;;;;;17.44;74.06;100071.56;1723921;82;20964;-55